sensor_id;sensor_type;location;lat;lon;timestamp;P1;durP1;ratioP1;P2;durP2;ratioP2
5303;SDS011;2674;49.722;10.892;2022-11-20T00:03:33;26.77;;;13.73;;
5303;SDS011;2674;49.722;10.892;2022-11-20T00:06:03;27.00;;;14.03;;
5303;SDS011;2674;49.722;10.892;2022-11-20T00:08:31;29.33;;;15.53;;
5303;SDS011;2674;49.722;10.892;2022-11-20T00:10:57;26.43;;;13.90;;
5303;SDS011;2674;49.722;10.892;2022-11-20T00:13:28;26.83;;;14.20;;
5303;SDS011;2674;49.722;10.892;2022-11-20T00:15:58;24.47;;;13.60;;
5303;SDS011;2674;49.722;10.892;2022-11-20T00:18:25;27.83;;;14.47;;
5303;SDS011;2674;49.722;10.892;2022-11-20T00:20:51;32.10;;;16.23;;
5303;SDS011;2674;49.722;10.892;2022-11-20T00:23:17;29.93;;;16.60;;
5303;SDS011;2674;49.722;10.892;2022-11-20T00:25:43;32.07;;;15.73;;
5303;SDS011;2674;49.722;10.892;2022-11-20T00:28:08;30.93;;;14.80;;
5303;SDS011;2674;49.722;10.892;2022-11-20T00:30:34;28.43;;;15.50;;
5303;SDS011;2674;49.722;10.892;2022-11-20T00:33:00;34.93;;;15.67;;
5303;SDS011;2674;49.722;10.892;2022-11-20T00:35:27;30.20;;;15.30;;
5303;SDS011;2674;49.722;10.892;2022-11-20T00:37:53;33.00;;;14.87;;
5303;SDS011;2674;49.722;10.892;2022-11-20T00:40:19;21.50;;;11.77;;
5303;SDS011;2674;49.722;10.892;2022-11-20T00:42:44;25.10;;;14.33;;
5303;SDS011;2674;49.722;10.892;2022-11-20T00:45:10;29.70;;;14.17;;
5303;SDS011;2674;49.722;10.892;2022-11-20T00:47:36;26.30;;;13.30;;
5303;SDS011;2674;49.722;10.892;2022-11-20T00:50:02;29.70;;;15.87;;
5303;SDS011;2674;49.722;10.892;2022-11-20T00:52:28;29.73;;;14.40;;
5303;SDS011;2674;49.722;10.892;2022-11-20T00:54:54;26.73;;;14.60;;
5303;SDS011;2674;49.722;10.892;2022-11-20T00:57:20;29.50;;;13.70;;
5303;SDS011;2674;49.722;10.892;2022-11-20T00:59:46;24.77;;;14.03;;
5303;SDS011;2674;49.722;10.892;2022-11-20T01:02:12;29.93;;;14.57;;
5303;SDS011;2674;49.722;10.892;2022-11-20T01:04:38;28.43;;;14.27;;
5303;SDS011;2674;49.722;10.892;2022-11-20T01:07:05;29.60;;;14.30;;
5303;SDS011;2674;49.722;10.892;2022-11-20T01:09:30;31.90;;;15.53;;
5303;SDS011;2674;49.722;10.892;2022-11-20T01:11:56;22.60;;;12.87;;
5303;SDS011;2674;49.722;10.892;2022-11-20T01:14:24;24.03;;;13.47;;
5303;SDS011;2674;49.722;10.892;2022-11-20T01:16:50;29.10;;;14.50;;
5303;SDS011;2674;49.722;10.892;2022-11-20T01:19:20;27.27;;;15.27;;
5303;SDS011;2674;49.722;10.892;2022-11-20T01:21:51;27.43;;;14.30;;
5303;SDS011;2674;49.722;10.892;2022-11-20T01:24:19;25.80;;;13.40;;
5303;SDS011;2674;49.722;10.892;2022-11-20T01:26:47;25.33;;;12.87;;
5303;SDS011;2674;49.722;10.892;2022-11-20T01:29:15;24.60;;;13.50;;
5303;SDS011;2674;49.722;10.892;2022-11-20T01:31:44;33.60;;;14.27;;
5303;SDS011;2674;49.722;10.892;2022-11-20T01:34:11;30.57;;;15.13;;
5303;SDS011;2674;49.722;10.892;2022-11-20T01:36:39;25.20;;;13.30;;
5303;SDS011;2674;49.722;10.892;2022-11-20T01:39:07;28.10;;;14.03;;
5303;SDS011;2674;49.722;10.892;2022-11-20T01:41:36;26.43;;;14.53;;
5303;SDS011;2674;49.722;10.892;2022-11-20T01:44:39;26.90;;;12.93;;
5303;SDS011;2674;49.722;10.892;2022-11-20T01:47:11;27.87;;;13.70;;
5303;SDS011;2674;49.722;10.892;2022-11-20T01:49:43;30.33;;;14.50;;
5303;SDS011;2674;49.722;10.892;2022-11-20T01:52:20;31.70;;;14.23;;
5303;SDS011;2674;49.722;10.892;2022-11-20T01:55:24;30.07;;;15.23;;
5303;SDS011;2674;49.722;10.892;2022-11-20T01:57:46;29.80;;;14.93;;
5303;SDS011;2674;49.722;10.892;2022-11-20T02:00:15;27.43;;;14.37;;
5303;SDS011;2674;49.722;10.892;2022-11-20T02:02:48;22.60;;;12.90;;
5303;SDS011;2674;49.722;10.892;2022-11-20T02:08:02;28.70;;;15.03;;
5303;SDS011;2674;49.722;10.892;2022-11-20T02:10:29;29.60;;;15.43;;
5303;SDS011;2674;49.722;10.892;2022-11-20T02:12:55;43.27;;;16.83;;
5303;SDS011;2674;49.722;10.892;2022-11-20T02:15:40;28.73;;;15.27;;
5303;SDS011;2674;49.722;10.892;2022-11-20T02:18:06;40.27;;;17.90;;
5303;SDS011;2674;49.722;10.892;2022-11-20T02:20:33;33.27;;;15.70;;
5303;SDS011;2674;49.722;10.892;2022-11-20T02:25:35;26.93;;;14.47;;
5303;SDS011;2674;49.722;10.892;2022-11-20T02:28:03;35.37;;;15.90;;
5303;SDS011;2674;49.722;10.892;2022-11-20T02:30:33;28.70;;;14.30;;
5303;SDS011;2674;49.722;10.892;2022-11-20T02:32:59;27.30;;;14.23;;
5303;SDS011;2674;49.722;10.892;2022-11-20T02:37:51;21.60;;;12.33;;
5303;SDS011;2674;49.722;10.892;2022-11-20T02:40:19;25.17;;;13.67;;
5303;SDS011;2674;49.722;10.892;2022-11-20T02:42:45;28.20;;;13.83;;
5303;SDS011;2674;49.722;10.892;2022-11-20T02:45:11;39.10;;;16.03;;
5303;SDS011;2674;49.722;10.892;2022-11-20T02:47:37;30.60;;;15.60;;
5303;SDS011;2674;49.722;10.892;2022-11-20T02:50:04;28.63;;;13.43;;
5303;SDS011;2674;49.722;10.892;2022-11-20T02:52:30;28.07;;;13.70;;
5303;SDS011;2674;49.722;10.892;2022-11-20T02:54:56;25.13;;;13.73;;
5303;SDS011;2674;49.722;10.892;2022-11-20T02:57:22;25.17;;;14.50;;
5303;SDS011;2674;49.722;10.892;2022-11-20T02:59:48;27.90;;;14.53;;
5303;SDS011;2674;49.722;10.892;2022-11-20T03:02:13;32.93;;;15.27;;
5303;SDS011;2674;49.722;10.892;2022-11-20T03:04:39;27.47;;;15.00;;
5303;SDS011;2674;49.722;10.892;2022-11-20T03:07:05;36.07;;;15.97;;
5303;SDS011;2674;49.722;10.892;2022-11-20T03:09:33;28.27;;;15.10;;
5303;SDS011;2674;49.722;10.892;2022-11-20T03:11:59;32.30;;;15.20;;
5303;SDS011;2674;49.722;10.892;2022-11-20T03:14:25;30.00;;;14.60;;
5303;SDS011;2674;49.722;10.892;2022-11-20T03:16:50;30.43;;;16.00;;
5303;SDS011;2674;49.722;10.892;2022-11-20T03:19:17;29.07;;;13.40;;
5303;SDS011;2674;49.722;10.892;2022-11-20T03:21:43;30.53;;;15.07;;
5303;SDS011;2674;49.722;10.892;2022-11-20T03:24:09;24.83;;;13.33;;
5303;SDS011;2674;49.722;10.892;2022-11-20T03:26:35;29.90;;;15.33;;
5303;SDS011;2674;49.722;10.892;2022-11-20T03:29:02;32.13;;;14.53;;
5303;SDS011;2674;49.722;10.892;2022-11-20T03:31:33;32.80;;;16.40;;
5303;SDS011;2674;49.722;10.892;2022-11-20T03:34:05;29.10;;;14.20;;
5303;SDS011;2674;49.722;10.892;2022-11-20T03:36:32;26.33;;;13.57;;
5303;SDS011;2674;49.722;10.892;2022-11-20T03:38:59;27.97;;;15.30;;
5303;SDS011;2674;49.722;10.892;2022-11-20T03:41:26;28.50;;;15.37;;
5303;SDS011;2674;49.722;10.892;2022-11-20T03:43:54;30.53;;;15.10;;
5303;SDS011;2674;49.722;10.892;2022-11-20T03:46:25;33.03;;;17.13;;
5303;SDS011;2674;49.722;10.892;2022-11-20T03:48:51;30.30;;;16.03;;
5303;SDS011;2674;49.722;10.892;2022-11-20T03:53:47;27.77;;;15.80;;
5303;SDS011;2674;49.722;10.892;2022-11-20T03:56:14;33.57;;;16.00;;
5303;SDS011;2674;49.722;10.892;2022-11-20T03:58:42;30.60;;;15.13;;
5303;SDS011;2674;49.722;10.892;2022-11-20T04:01:10;30.80;;;16.57;;
5303;SDS011;2674;49.722;10.892;2022-11-20T04:03:37;36.83;;;16.60;;
5303;SDS011;2674;49.722;10.892;2022-11-20T04:06:05;29.57;;;16.70;;
5303;SDS011;2674;49.722;10.892;2022-11-20T04:08:33;30.03;;;15.27;;
5303;SDS011;2674;49.722;10.892;2022-11-20T04:11:09;28.93;;;15.77;;
5303;SDS011;2674;49.722;10.892;2022-11-20T04:13:40;33.73;;;17.00;;
5303;SDS011;2674;49.722;10.892;2022-11-20T04:16:07;34.67;;;16.53;;
5303;SDS011;2674;49.722;10.892;2022-11-20T04:18:34;30.43;;;16.43;;
5303;SDS011;2674;49.722;10.892;2022-11-20T04:21:00;30.93;;;16.73;;
5303;SDS011;2674;49.722;10.892;2022-11-20T04:23:27;33.17;;;17.60;;
5303;SDS011;2674;49.722;10.892;2022-11-20T04:25:53;30.90;;;15.27;;
5303;SDS011;2674;49.722;10.892;2022-11-20T04:28:19;29.03;;;15.97;;
5303;SDS011;2674;49.722;10.892;2022-11-20T04:30:45;30.67;;;16.10;;
5303;SDS011;2674;49.722;10.892;2022-11-20T04:33:11;29.70;;;16.33;;
5303;SDS011;2674;49.722;10.892;2022-11-20T04:35:37;32.47;;;16.10;;
5303;SDS011;2674;49.722;10.892;2022-11-20T04:38:03;31.37;;;15.70;;
5303;SDS011;2674;49.722;10.892;2022-11-20T04:40:29;29.00;;;15.30;;
5303;SDS011;2674;49.722;10.892;2022-11-20T04:42:55;33.97;;;16.40;;
5303;SDS011;2674;49.722;10.892;2022-11-20T04:45:22;24.90;;;14.03;;
5303;SDS011;2674;49.722;10.892;2022-11-20T04:47:48;31.97;;;15.70;;
5303;SDS011;2674;49.722;10.892;2022-11-20T04:50:14;32.37;;;16.67;;
5303;SDS011;2674;49.722;10.892;2022-11-20T04:52:40;33.30;;;17.33;;
5303;SDS011;2674;49.722;10.892;2022-11-20T04:55:07;30.63;;;16.33;;
5303;SDS011;2674;49.722;10.892;2022-11-20T04:57:33;28.83;;;15.37;;
5303;SDS011;2674;49.722;10.892;2022-11-20T04:59:58;33.27;;;17.27;;
5303;SDS011;2674;49.722;10.892;2022-11-20T05:02:24;34.83;;;16.47;;
5303;SDS011;2674;49.722;10.892;2022-11-20T05:04:50;30.37;;;16.03;;
5303;SDS011;2674;49.722;10.892;2022-11-20T05:07:16;36.90;;;18.30;;
5303;SDS011;2674;49.722;10.892;2022-11-20T05:09:42;33.37;;;16.90;;
5303;SDS011;2674;49.722;10.892;2022-11-20T05:12:08;32.10;;;16.37;;
5303;SDS011;2674;49.722;10.892;2022-11-20T05:14:34;29.40;;;15.40;;
5303;SDS011;2674;49.722;10.892;2022-11-20T05:17:00;32.23;;;18.20;;
5303;SDS011;2674;49.722;10.892;2022-11-20T05:19:26;31.60;;;16.90;;
5303;SDS011;2674;49.722;10.892;2022-11-20T05:21:52;39.40;;;17.60;;
5303;SDS011;2674;49.722;10.892;2022-11-20T05:24:18;33.77;;;18.47;;
5303;SDS011;2674;49.722;10.892;2022-11-20T05:26:44;36.57;;;16.90;;
5303;SDS011;2674;49.722;10.892;2022-11-20T05:29:13;32.07;;;18.10;;
5303;SDS011;2674;49.722;10.892;2022-11-20T05:31:40;31.87;;;17.70;;
5303;SDS011;2674;49.722;10.892;2022-11-20T05:34:06;34.10;;;18.07;;
5303;SDS011;2674;49.722;10.892;2022-11-20T05:36:32;39.07;;;17.80;;
5303;SDS011;2674;49.722;10.892;2022-11-20T05:38:58;33.60;;;16.93;;
5303;SDS011;2674;49.722;10.892;2022-11-20T05:41:24;35.07;;;17.67;;
5303;SDS011;2674;49.722;10.892;2022-11-20T05:43:50;34.33;;;17.80;;
5303;SDS011;2674;49.722;10.892;2022-11-20T05:46:18;34.93;;;16.77;;
5303;SDS011;2674;49.722;10.892;2022-11-20T05:48:45;33.53;;;16.57;;
5303;SDS011;2674;49.722;10.892;2022-11-20T05:51:12;31.00;;;17.60;;
5303;SDS011;2674;49.722;10.892;2022-11-20T05:53:41;34.13;;;18.43;;
5303;SDS011;2674;49.722;10.892;2022-11-20T05:56:09;37.73;;;18.10;;
5303;SDS011;2674;49.722;10.892;2022-11-20T05:58:37;30.60;;;16.87;;
5303;SDS011;2674;49.722;10.892;2022-11-20T06:01:07;36.93;;;17.20;;
5303;SDS011;2674;49.722;10.892;2022-11-20T06:03:38;35.70;;;18.13;;
5303;SDS011;2674;49.722;10.892;2022-11-20T06:06:05;39.20;;;17.37;;
5303;SDS011;2674;49.722;10.892;2022-11-20T06:08:31;35.77;;;17.53;;
5303;SDS011;2674;49.722;10.892;2022-11-20T06:10:57;39.70;;;19.80;;
5303;SDS011;2674;49.722;10.892;2022-11-20T06:13:27;34.93;;;18.50;;
5303;SDS011;2674;49.722;10.892;2022-11-20T06:15:53;35.33;;;17.50;;
5303;SDS011;2674;49.722;10.892;2022-11-20T06:18:19;37.83;;;19.00;;
5303;SDS011;2674;49.722;10.892;2022-11-20T06:20:45;34.73;;;17.53;;
5303;SDS011;2674;49.722;10.892;2022-11-20T06:23:11;37.10;;;19.03;;
5303;SDS011;2674;49.722;10.892;2022-11-20T06:25:38;34.53;;;16.97;;
5303;SDS011;2674;49.722;10.892;2022-11-20T06:28:05;34.73;;;18.00;;
5303;SDS011;2674;49.722;10.892;2022-11-20T06:30:31;33.17;;;17.87;;
5303;SDS011;2674;49.722;10.892;2022-11-20T06:32:57;40.47;;;20.27;;
5303;SDS011;2674;49.722;10.892;2022-11-20T06:35:23;31.50;;;16.53;;
5303;SDS011;2674;49.722;10.892;2022-11-20T06:37:48;37.83;;;18.87;;
5303;SDS011;2674;49.722;10.892;2022-11-20T06:40:14;31.57;;;17.27;;
5303;SDS011;2674;49.722;10.892;2022-11-20T06:42:40;38.13;;;17.70;;
5303;SDS011;2674;49.722;10.892;2022-11-20T06:45:06;35.57;;;17.17;;
5303;SDS011;2674;49.722;10.892;2022-11-20T06:47:33;40.43;;;18.60;;
5303;SDS011;2674;49.722;10.892;2022-11-20T06:49:59;42.67;;;20.90;;
5303;SDS011;2674;49.722;10.892;2022-11-20T06:52:25;43.27;;;22.13;;
5303;SDS011;2674;49.722;10.892;2022-11-20T06:54:50;35.13;;;17.33;;
5303;SDS011;2674;49.722;10.892;2022-11-20T06:57:16;37.20;;;19.60;;
5303;SDS011;2674;49.722;10.892;2022-11-20T06:59:42;36.73;;;17.50;;
5303;SDS011;2674;49.722;10.892;2022-11-20T07:02:11;36.67;;;17.70;;
5303;SDS011;2674;49.722;10.892;2022-11-20T07:04:37;31.90;;;16.70;;
5303;SDS011;2674;49.722;10.892;2022-11-20T07:07:04;35.50;;;17.77;;
5303;SDS011;2674;49.722;10.892;2022-11-20T07:09:31;37.40;;;18.63;;
5303;SDS011;2674;49.722;10.892;2022-11-20T07:11:57;30.87;;;15.97;;
5303;SDS011;2674;49.722;10.892;2022-11-20T07:14:23;40.47;;;19.00;;
5303;SDS011;2674;49.722;10.892;2022-11-20T07:16:49;32.13;;;17.50;;
5303;SDS011;2674;49.722;10.892;2022-11-20T07:19:15;35.40;;;16.83;;
5303;SDS011;2674;49.722;10.892;2022-11-20T07:21:41;38.53;;;18.23;;
5303;SDS011;2674;49.722;10.892;2022-11-20T07:24:06;46.67;;;24.60;;
5303;SDS011;2674;49.722;10.892;2022-11-20T07:26:32;46.03;;;26.10;;
5303;SDS011;2674;49.722;10.892;2022-11-20T07:28:58;41.00;;;18.77;;
5303;SDS011;2674;49.722;10.892;2022-11-20T07:31:24;36.40;;;18.43;;
5303;SDS011;2674;49.722;10.892;2022-11-20T07:33:50;32.67;;;16.40;;
5303;SDS011;2674;49.722;10.892;2022-11-20T07:36:16;40.83;;;18.87;;
5303;SDS011;2674;49.722;10.892;2022-11-20T07:38:41;34.03;;;17.57;;
5303;SDS011;2674;49.722;10.892;2022-11-20T07:41:07;39.87;;;18.90;;
5303;SDS011;2674;49.722;10.892;2022-11-20T07:43:33;37.33;;;17.60;;
5303;SDS011;2674;49.722;10.892;2022-11-20T07:45:59;41.10;;;20.47;;
5303;SDS011;2674;49.722;10.892;2022-11-20T07:48:25;36.00;;;17.40;;
5303;SDS011;2674;49.722;10.892;2022-11-20T07:50:57;37.07;;;18.80;;
5303;SDS011;2674;49.722;10.892;2022-11-20T07:53:23;41.17;;;21.13;;
5303;SDS011;2674;49.722;10.892;2022-11-20T07:55:50;36.77;;;17.70;;
5303;SDS011;2674;49.722;10.892;2022-11-20T07:58:17;39.43;;;19.70;;
5303;SDS011;2674;49.722;10.892;2022-11-20T08:00:45;33.87;;;17.90;;
5303;SDS011;2674;49.722;10.892;2022-11-20T08:03:11;39.90;;;19.93;;
5303;SDS011;2674;49.722;10.892;2022-11-20T08:05:37;40.67;;;19.57;;
5303;SDS011;2674;49.722;10.892;2022-11-20T08:08:02;43.57;;;20.33;;
5303;SDS011;2674;49.722;10.892;2022-11-20T08:10:29;48.20;;;20.77;;
5303;SDS011;2674;49.722;10.892;2022-11-20T08:12:54;41.00;;;18.93;;
5303;SDS011;2674;49.722;10.892;2022-11-20T08:15:39;39.07;;;18.83;;
5303;SDS011;2674;49.722;10.892;2022-11-20T08:20:31;42.60;;;19.13;;
5303;SDS011;2674;49.722;10.892;2022-11-20T08:23:01;38.10;;;19.00;;
5303;SDS011;2674;49.722;10.892;2022-11-20T08:25:29;38.50;;;18.50;;
5303;SDS011;2674;49.722;10.892;2022-11-20T08:27:58;44.77;;;21.90;;
5303;SDS011;2674;49.722;10.892;2022-11-20T08:30:25;39.97;;;17.97;;
5303;SDS011;2674;49.722;10.892;2022-11-20T08:32:52;39.17;;;18.50;;
5303;SDS011;2674;49.722;10.892;2022-11-20T08:35:18;36.70;;;18.33;;
5303;SDS011;2674;49.722;10.892;2022-11-20T08:37:48;35.87;;;17.87;;
5303;SDS011;2674;49.722;10.892;2022-11-20T08:40:14;33.77;;;17.40;;
5303;SDS011;2674;49.722;10.892;2022-11-20T08:42:50;45.23;;;22.60;;
5303;SDS011;2674;49.722;10.892;2022-11-20T08:45:16;41.60;;;23.30;;
5303;SDS011;2674;49.722;10.892;2022-11-20T08:47:44;42.37;;;20.60;;
5303;SDS011;2674;49.722;10.892;2022-11-20T08:50:11;39.47;;;20.47;;
5303;SDS011;2674;49.722;10.892;2022-11-20T08:52:39;37.83;;;19.37;;
5303;SDS011;2674;49.722;10.892;2022-11-20T08:55:05;37.57;;;17.77;;
5303;SDS011;2674;49.722;10.892;2022-11-20T08:57:32;42.20;;;19.00;;
5303;SDS011;2674;49.722;10.892;2022-11-20T08:59:59;46.30;;;20.80;;
5303;SDS011;2674;49.722;10.892;2022-11-20T09:02:25;43.43;;;22.30;;
5303;SDS011;2674;49.722;10.892;2022-11-20T09:04:50;41.50;;;21.00;;
5303;SDS011;2674;49.722;10.892;2022-11-20T09:07:16;32.10;;;17.10;;
5303;SDS011;2674;49.722;10.892;2022-11-20T09:09:42;32.70;;;16.07;;
5303;SDS011;2674;49.722;10.892;2022-11-20T09:12:08;34.00;;;17.47;;
5303;SDS011;2674;49.722;10.892;2022-11-20T09:14:34;33.83;;;17.50;;
5303;SDS011;2674;49.722;10.892;2022-11-20T09:17:00;40.33;;;18.80;;
5303;SDS011;2674;49.722;10.892;2022-11-20T09:19:26;36.83;;;18.90;;
5303;SDS011;2674;49.722;10.892;2022-11-20T09:21:52;38.87;;;18.90;;
5303;SDS011;2674;49.722;10.892;2022-11-20T09:24:18;34.73;;;16.93;;
5303;SDS011;2674;49.722;10.892;2022-11-20T09:26:46;32.73;;;17.60;;
5303;SDS011;2674;49.722;10.892;2022-11-20T09:29:12;35.37;;;17.33;;
5303;SDS011;2674;49.722;10.892;2022-11-20T09:31:38;31.03;;;17.30;;
5303;SDS011;2674;49.722;10.892;2022-11-20T09:34:04;35.60;;;18.10;;
5303;SDS011;2674;49.722;10.892;2022-11-20T09:36:29;31.03;;;16.27;;
5303;SDS011;2674;49.722;10.892;2022-11-20T09:38:55;32.70;;;16.50;;
5303;SDS011;2674;49.722;10.892;2022-11-20T09:49:59;53.23;;;30.27;;
5303;SDS011;2674;49.722;10.892;2022-11-20T09:53:01;81.30;;;28.53;;
5303;SDS011;2674;49.722;10.892;2022-11-20T09:55:29;35.50;;;17.23;;
5303;SDS011;2674;49.722;10.892;2022-11-20T09:57:56;39.40;;;17.73;;
5303;SDS011;2674;49.722;10.892;2022-11-20T10:00:24;33.30;;;14.93;;
5303;SDS011;2674;49.722;10.892;2022-11-20T10:02:55;45.40;;;19.60;;
5303;SDS011;2674;49.722;10.892;2022-11-20T10:05:33;42.60;;;17.80;;
5303;SDS011;2674;49.722;10.892;2022-11-20T10:10:45;35.47;;;17.30;;
5303;SDS011;2674;49.722;10.892;2022-11-20T10:13:24;36.20;;;16.80;;
5303;SDS011;2674;49.722;10.892;2022-11-20T10:16:12;41.83;;;19.07;;
5303;SDS011;2674;49.722;10.892;2022-11-20T10:21:47;48.83;;;19.37;;
5303;SDS011;2674;49.722;10.892;2022-11-20T10:24:27;46.10;;;19.00;;
5303;SDS011;2674;49.722;10.892;2022-11-20T10:29:58;41.97;;;21.30;;
5303;SDS011;2674;49.722;10.892;2022-11-20T10:32:37;45.70;;;20.70;;
5303;SDS011;2674;49.722;10.892;2022-11-20T10:38:02;42.70;;;22.83;;
5303;SDS011;2674;49.722;10.892;2022-11-20T10:40:40;30.93;;;17.17;;
5303;SDS011;2674;49.722;10.892;2022-11-20T10:43:19;28.30;;;16.47;;
5303;SDS011;2674;49.722;10.892;2022-11-20T10:45:56;28.17;;;15.30;;
5303;SDS011;2674;49.722;10.892;2022-11-20T10:48:32;26.90;;;14.50;;
5303;SDS011;2674;49.722;10.892;2022-11-20T10:54:12;28.67;;;12.90;;
5303;SDS011;2674;49.722;10.892;2022-11-20T10:57:11;20.70;;;11.67;;
5303;SDS011;2674;49.722;10.892;2022-11-20T11:00:20;22.67;;;11.77;;
5303;SDS011;2674;49.722;10.892;2022-11-20T11:02:49;22.73;;;12.60;;
5303;SDS011;2674;49.722;10.892;2022-11-20T11:07:47;27.33;;;14.23;;
5303;SDS011;2674;49.722;10.892;2022-11-20T11:13:26;22.37;;;11.90;;
5303;SDS011;2674;49.722;10.892;2022-11-20T11:15:54;25.90;;;13.60;;
5303;SDS011;2674;49.722;10.892;2022-11-20T11:18:30;32.83;;;18.57;;
5303;SDS011;2674;49.722;10.892;2022-11-20T11:20:59;32.83;;;17.13;;
5303;SDS011;2674;49.722;10.892;2022-11-20T11:23:34;25.57;;;14.80;;
5303;SDS011;2674;49.722;10.892;2022-11-20T11:26:03;25.60;;;13.43;;
5303;SDS011;2674;49.722;10.892;2022-11-20T11:28:30;28.90;;;15.23;;
5303;SDS011;2674;49.722;10.892;2022-11-20T11:30:56;28.13;;;14.57;;
5303;SDS011;2674;49.722;10.892;2022-11-20T11:33:32;25.23;;;14.20;;
5303;SDS011;2674;49.722;10.892;2022-11-20T11:36:05;24.90;;;12.70;;
5303;SDS011;2674;49.722;10.892;2022-11-20T11:38:48;23.43;;;12.93;;
5303;SDS011;2674;49.722;10.892;2022-11-20T11:41:19;23.47;;;13.47;;
5303;SDS011;2674;49.722;10.892;2022-11-20T11:43:55;21.03;;;11.80;;
5303;SDS011;2674;49.722;10.892;2022-11-20T11:46:54;21.20;;;11.70;;
5303;SDS011;2674;49.722;10.892;2022-11-20T11:49:21;18.83;;;11.80;;
5303;SDS011;2674;49.722;10.892;2022-11-20T11:54:28;20.07;;;12.13;;
5303;SDS011;2674;49.722;10.892;2022-11-20T11:57:00;18.57;;;11.20;;
5303;SDS011;2674;49.722;10.892;2022-11-20T11:59:43;18.37;;;11.63;;
5303;SDS011;2674;49.722;10.892;2022-11-20T12:02:21;19.47;;;11.10;;
5303;SDS011;2674;49.722;10.892;2022-11-20T12:05:06;15.33;;;9.80;;
5303;SDS011;2674;49.722;10.892;2022-11-20T12:07:50;16.73;;;9.30;;
5303;SDS011;2674;49.722;10.892;2022-11-20T12:10:45;33.00;;;17.30;;
5303;SDS011;2674;49.722;10.892;2022-11-20T12:15:55;18.03;;;10.10;;
5303;SDS011;2674;49.722;10.892;2022-11-20T12:18:21;14.60;;;9.10;;
5303;SDS011;2674;49.722;10.892;2022-11-20T12:23:40;14.87;;;9.67;;
5303;SDS011;2674;49.722;10.892;2022-11-20T12:47:21;15.77;;;10.30;;
5303;SDS011;2674;49.722;10.892;2022-11-20T12:53:16;17.10;;;10.27;;
5303;SDS011;2674;49.722;10.892;2022-11-20T12:58:18;18.43;;;10.10;;
5303;SDS011;2674;49.722;10.892;2022-11-20T13:01:29;15.10;;;10.07;;
5303;SDS011;2674;49.722;10.892;2022-11-20T13:06:51;19.33;;;10.93;;
5303;SDS011;2674;49.722;10.892;2022-11-20T13:09:18;20.23;;;12.90;;
5303;SDS011;2674;49.722;10.892;2022-11-20T13:20:14;22.40;;;11.30;;
5303;SDS011;2674;49.722;10.892;2022-11-20T13:22:49;16.13;;;10.37;;
5303;SDS011;2674;49.722;10.892;2022-11-20T13:27:56;16.50;;;10.33;;
5303;SDS011;2674;49.722;10.892;2022-11-20T13:30:24;16.70;;;10.40;;
5303;SDS011;2674;49.722;10.892;2022-11-20T13:33:03;13.77;;;8.67;;
5303;SDS011;2674;49.722;10.892;2022-11-20T13:35:34;15.53;;;10.03;;
5303;SDS011;2674;49.722;10.892;2022-11-20T13:38:09;14.73;;;9.20;;
5303;SDS011;2674;49.722;10.892;2022-11-20T13:40:38;15.43;;;10.30;;
5303;SDS011;2674;49.722;10.892;2022-11-20T13:45:59;16.50;;;11.30;;
5303;SDS011;2674;49.722;10.892;2022-11-20T13:48:28;18.60;;;10.67;;
5303;SDS011;2674;49.722;10.892;2022-11-20T14:01:51;15.23;;;9.40;;
5303;SDS011;2674;49.722;10.892;2022-11-20T14:04:24;14.40;;;7.90;;
5303;SDS011;2674;49.722;10.892;2022-11-20T14:06:57;18.23;;;10.87;;
5303;SDS011;2674;49.722;10.892;2022-11-20T14:09:25;20.47;;;11.90;;
5303;SDS011;2674;49.722;10.892;2022-11-20T14:11:55;15.67;;;9.23;;
5303;SDS011;2674;49.722;10.892;2022-11-20T14:14:25;22.03;;;13.07;;
5303;SDS011;2674;49.722;10.892;2022-11-20T14:17:03;15.13;;;9.60;;
5303;SDS011;2674;49.722;10.892;2022-11-20T14:19:34;64.83;;;33.30;;
5303;SDS011;2674;49.722;10.892;2022-11-20T14:22:09;63.73;;;35.00;;
5303;SDS011;2674;49.722;10.892;2022-11-20T14:24:39;29.60;;;18.57;;
5303;SDS011;2674;49.722;10.892;2022-11-20T14:27:10;40.27;;;22.90;;
5303;SDS011;2674;49.722;10.892;2022-11-20T14:29:38;22.20;;;12.37;;
5303;SDS011;2674;49.722;10.892;2022-11-20T14:32:08;16.43;;;10.50;;
5303;SDS011;2674;49.722;10.892;2022-11-20T14:34:37;19.43;;;11.17;;
5303;SDS011;2674;49.722;10.892;2022-11-20T14:37:11;15.37;;;10.73;;
5303;SDS011;2674;49.722;10.892;2022-11-20T14:39:42;15.00;;;9.30;;
5303;SDS011;2674;49.722;10.892;2022-11-20T14:42:19;15.20;;;10.07;;
5303;SDS011;2674;49.722;10.892;2022-11-20T14:44:47;17.40;;;9.37;;
5303;SDS011;2674;49.722;10.892;2022-11-20T14:47:17;16.33;;;9.63;;
5303;SDS011;2674;49.722;10.892;2022-11-20T14:49:46;16.27;;;8.20;;
5303;SDS011;2674;49.722;10.892;2022-11-20T14:52:15;15.60;;;9.40;;
5303;SDS011;2674;49.722;10.892;2022-11-20T14:54:43;15.70;;;9.40;;
5303;SDS011;2674;49.722;10.892;2022-11-20T14:57:21;14.00;;;8.47;;
5303;SDS011;2674;49.722;10.892;2022-11-20T15:02:39;13.67;;;8.23;;
5303;SDS011;2674;49.722;10.892;2022-11-20T15:05:09;10.20;;;7.20;;
5303;SDS011;2674;49.722;10.892;2022-11-20T15:07:37;21.40;;;9.33;;
5303;SDS011;2674;49.722;10.892;2022-11-20T15:10:07;14.13;;;8.60;;
5303;SDS011;2674;49.722;10.892;2022-11-20T15:12:49;15.17;;;8.80;;
5303;SDS011;2674;49.722;10.892;2022-11-20T15:15:25;19.77;;;11.13;;
5303;SDS011;2674;49.722;10.892;2022-11-20T15:17:55;17.13;;;10.40;;
5303;SDS011;2674;49.722;10.892;2022-11-20T15:20:23;23.83;;;12.40;;
5303;SDS011;2674;49.722;10.892;2022-11-20T15:22:52;20.37;;;12.40;;
5303;SDS011;2674;49.722;10.892;2022-11-20T15:25:18;20.87;;;11.83;;
5303;SDS011;2674;49.722;10.892;2022-11-20T15:27:44;17.50;;;10.63;;
5303;SDS011;2674;49.722;10.892;2022-11-20T15:30:12;18.33;;;10.10;;
5303;SDS011;2674;49.722;10.892;2022-11-20T15:32:46;16.90;;;9.60;;
5303;SDS011;2674;49.722;10.892;2022-11-20T15:35:12;17.17;;;9.70;;
5303;SDS011;2674;49.722;10.892;2022-11-20T15:37:39;18.70;;;10.90;;
5303;SDS011;2674;49.722;10.892;2022-11-20T15:40:06;22.67;;;9.27;;
5303;SDS011;2674;49.722;10.892;2022-11-20T15:42:33;19.73;;;10.63;;
5303;SDS011;2674;49.722;10.892;2022-11-20T15:44:59;21.43;;;9.63;;
5303;SDS011;2674;49.722;10.892;2022-11-20T15:47:29;17.67;;;10.30;;
5303;SDS011;2674;49.722;10.892;2022-11-20T15:49:58;15.43;;;9.13;;
5303;SDS011;2674;49.722;10.892;2022-11-20T15:52:24;19.40;;;9.83;;
5303;SDS011;2674;49.722;10.892;2022-11-20T15:54:50;18.00;;;9.00;;
5303;SDS011;2674;49.722;10.892;2022-11-20T15:57:15;18.10;;;9.57;;
5303;SDS011;2674;49.722;10.892;2022-11-20T15:59:41;16.20;;;9.90;;
5303;SDS011;2674;49.722;10.892;2022-11-20T16:02:14;17.60;;;11.63;;
5303;SDS011;2674;49.722;10.892;2022-11-20T16:04:41;17.37;;;10.33;;
5303;SDS011;2674;49.722;10.892;2022-11-20T16:07:07;19.03;;;11.00;;
5303;SDS011;2674;49.722;10.892;2022-11-20T16:09:33;20.57;;;12.57;;
5303;SDS011;2674;49.722;10.892;2022-11-20T16:11:59;20.70;;;12.23;;
5303;SDS011;2674;49.722;10.892;2022-11-20T16:14:25;19.23;;;13.03;;
5303;SDS011;2674;49.722;10.892;2022-11-20T16:17:11;21.20;;;12.33;;
5303;SDS011;2674;49.722;10.892;2022-11-20T16:19:37;25.23;;;12.70;;
5303;SDS011;2674;49.722;10.892;2022-11-20T16:22:03;24.30;;;13.27;;
5303;SDS011;2674;49.722;10.892;2022-11-20T16:24:29;24.53;;;13.47;;
5303;SDS011;2674;49.722;10.892;2022-11-20T16:26:55;24.47;;;14.63;;
5303;SDS011;2674;49.722;10.892;2022-11-20T16:29:21;26.40;;;17.30;;
5303;SDS011;2674;49.722;10.892;2022-11-20T16:31:47;26.17;;;14.67;;
5303;SDS011;2674;49.722;10.892;2022-11-20T16:34:15;24.70;;;12.10;;
5303;SDS011;2674;49.722;10.892;2022-11-20T16:36:42;20.47;;;11.37;;